Date,TemperatureHighF,TemperatureAvgF,TemperatureLowF,DewpointHighF,DewpointAvgF,DewpointLowF,HumidityHigh,HumidityAvg,HumidityLow,PressureMaxIn,PressureMinIn,WindSpeedMaxMPH,WindSpeedAvgMPH,GustSpeedMaxMPH,PrecipitationSumIn
2013-1-1,64,56,50,-100,-100,-100,0,0,100,0.00,40.00,15,10,20,0.00
2013-1-2,63,57,51,-100,-100,-100,0,0,100,0.00,40.00,19,11,29,0.00
2013-1-3,51,48,45,-100,-100,-100,0,0,100,0.00,40.00,14,7,18,0.00
2013-1-4,53,45,36,-100,-100,-100,0,0,100,0.00,40.00,14,7,17,0.00
2013-1-5,54,45,37,-100,-100,-100,0,0,100,0.00,40.00,16,6,21,0.00
2013-1-6,53,49,47,-100,-100,-100,0,0,100,0.00,40.00,11,4,19,0.00
2013-1-7,53,48,43,-100,-100,-100,0,0,100,0.00,40.00,19,13,28,0.00
2013-1-8,67,53,44,-100,-100,-100,0,0,100,0.00,40.00,17,10,24,0.00
2013-1-9,69,62,54,-100,-100,-100,0,0,100,0.00,40.00,14,8,16,0.00
2013-1-10,66,59,54,-100,-100,-100,0,0,100,0.00,40.00,19,9,25,0.00
2013-1-11,74,62,53,-100,-100,-100,0,0,100,0.00,40.00,17,6,26,0.00
2013-1-12,76,66,59,74,-96,-100,94,2,94,0.00,40.00,14,7,17,0.00
2013-1-13,73,65,59,-100,-100,-100,0,0,100,0.00,40.00,14,7,19,0.00
2013-1-14,75,65,61,-100,-100,-100,0,0,100,0.00,40.00,19,10,32,0.00
2013-1-15,75,67,62,-100,-100,-100,0,0,100,0.00,40.00,16,8,24,0.00
2013-1-16,75,67,63,-100,-100,-100,0,0,100,0.00,40.00,21,10,30,0.00
2013-1-17,72,62,45,-100,-100,-100,0,0,100,0.00,40.00,37,14,54,0.00
2013-1-18,53,46,39,-100,-100,-100,0,0,100,0.00,40.00,28,14,39,0.00
2013-1-19,60,48,39,-100,-100,-100,0,0,100,0.00,40.00,16,8,23,0.00
2013-1-20,66,56,47,-100,-100,-100,0,0,100,0.00,40.00,18,11,29,0.00
2013-1-21,64,55,44,-100,-100,-100,0,0,100,0.00,40.00,23,10,30,0.00
2013-1-22,53,47,40,-100,-100,-100,0,0,100,0.00,40.00,21,10,29,0.00
2013-1-23,53,42,32,-100,-100,-100,0,0,100,0.00,40.00,14,9,19,0.00
2013-1-24,63,50,35,-100,-100,-100,0,0,100,0.00,40.00,27,19,40,0.00
2013-1-25,51,38,29,-100,-100,-100,0,0,100,0.00,40.00,21,10,27,0.00
2013-1-26,57,46,38,-100,-100,-100,0,0,100,0.00,40.00,16,7,21,0.00
2013-1-27,42,38,36,-100,-100,-100,0,0,100,0.00,40.00,18,14,22,0.00
2013-1-28,64,54,41,-100,-100,-100,0,0,100,0.00,40.00,11,5,15,0.00
2013-1-29,73,61,50,-100,-100,-100,0,0,100,0.00,40.00,14,6,24,0.00
2013-1-30,72,68,63,-100,-100,-100,0,0,100,0.00,40.00,37,19,59,0.00
2013-1-31,61,50,44,-100,-100,-100,0,0,100,0.00,40.00,35,18,55,0.00
2013-2-1,54,47,38,-100,-100,-100,0,0,100,0.00,40.00,30,16,46,0.00
2013-2-2,54,43,31,-100,-100,-100,0,0,100,0.00,40.00,15,10,23,0.00
2013-2-3,59,50,41,-100,-100,-100,0,0,100,0.00,40.00,32,16,49,0.00
2013-2-4,54,47,39,-100,-100,-100,0,0,100,0.00,40.00,12,6,14,0.00
2013-2-5,67,55,46,-100,-100,-100,0,0,100,0.00,40.00,20,12,32,0.00
2013-2-6,67,58,51,-100,-100,-100,0,0,100,0.00,40.00,17,8,27,0.00
2013-2-7,58,54,50,-100,-100,-100,0,0,100,0.00,40.00,26,12,29,0.00
2013-2-8,62,54,47,-100,-100,-100,0,0,100,0.00,40.00,21,12,32,0.00
2013-2-9,58,50,42,-100,-100,-100,0,0,100,0.00,40.00,16,8,24,0.00
2013-2-10,62,53,43,-100,-100,-100,0,0,100,0.00,40.00,16,10,20,0.00
2013-2-11,64,62,59,-100,-100,-100,0,0,100,0.00,40.00,19,10,34,0.00
2013-2-12,59,54,48,-100,-100,-100,0,0,100,0.00,40.00,23,7,36,0.00
2013-2-13,71,56,47,-100,-100,-100,0,0,100,0.00,40.00,37,13,54,0.00
2013-2-14,52,48,44,-100,-100,-100,0,0,100,0.00,40.00,16,8,26,0.00
2013-2-15,58,50,42,-100,-100,-100,0,0,100,0.00,40.00,15,7,16,0.00
2013-2-16,50,43,34,-100,-100,-100,0,0,100,0.00,40.00,35,12,47,0.00
2013-2-17,44,37,28,-100,-100,-100,0,0,100,0.00,40.00,29,15,41,0.00
2013-2-18,49,42,33,-100,-100,-100,0,0,100,0.00,40.00,16,8,19,0.00
2013-2-19,59,50,43,-100,-100,-100,0,0,100,0.00,40.00,17,8,25,0.00
2013-2-20,55,47,38,-100,-100,-100,0,0,100,0.00,40.00,14,7,21,0.00
2013-2-21,59,50,42,-100,-100,-100,0,0,100,0.00,40.00,12,7,15,0.00
2013-2-22,63,52,46,-100,-100,-100,0,0,100,0.00,40.00,26,13,32,0.00
2013-2-23,59,47,42,-100,-100,-100,0,0,100,0.00,40.00,17,8,30,0.00
2013-2-24,62,52,44,-100,-100,-100,0,0,100,0.00,40.00,16,8,21,0.00
2013-2-25,55,47,41,-100,-100,-100,0,0,100,0.00,40.00,30,13,36,0.00
2013-2-26,71,61,45,-100,-100,-100,0,0,100,0.00,40.00,32,17,54,0.00
2013-2-27,62,52,46,-100,-100,-100,0,0,100,0.00,40.00,21,13,31,0.00
2013-2-28,57,51,47,-100,-100,-100,0,0,100,0.00,40.00,30,17,44,0.00
2013-3-1,51,45,38,-100,-100,-100,0,0,100,0.00,40.00,20,9,26,0.00
2013-3-2,47,42,36,-100,-100,-100,0,0,100,0.00,40.00,26,13,32,0.00
2013-3-3,44,39,33,-100,-100,-100,0,0,100,0.00,40.00,20,12,29,0.00
2013-3-4,54,41,30,-100,-100,-100,0,0,100,0.00,40.00,19,10,26,0.00
2013-3-5,62,55,45,-100,-100,-100,0,0,100,0.00,40.00,28,12,51,0.00
2013-3-6,59,46,40,-100,-100,-100,0,0,100,0.00,40.00,38,22,57,0.00
2013-3-7,57,46,35,-100,-100,-100,0,0,100,0.00,40.00,20,10,24,0.00
2013-3-8,57,47,38,-100,-100,-100,0,0,100,0.00,40.00,23,11,29,0.00
2013-3-9,59,49,41,-100,-100,-100,0,0,100,0.00,40.00,17,9,26,0.00
2013-3-10,62,53,45,-100,-100,-100,0,0,100,0.00,40.00,14,6,16,0.00
2013-3-11,67,57,49,-100,-100,-100,0,0,100,0.00,40.00,15,8,24,0.00
2013-3-12,69,64,59,-100,-100,-100,0,0,100,0.00,40.00,26,13,39,0.00
2013-3-13,63,55,46,-100,-100,-100,0,0,100,0.00,40.00,26,14,39,0.00
2013-3-14,53,46,37,-100,-100,-100,0,0,100,0.00,40.00,20,10,28,0.00
2013-3-15,66,51,39,-100,-100,-100,0,0,100,0.00,40.00,18,10,26,0.00
2013-3-16,76,63,55,74,-99,-100,94,1,94,0.00,40.00,30,17,42,0.00
2013-3-17,72,64,58,-100,-100,-100,0,0,100,0.00,40.00,24,16,34,0.00
2013-3-18,65,61,58,-100,-100,-100,0,0,100,0.00,40.00,32,7,64,0.00
2013-3-19,73,61,53,-100,-100,-100,0,0,100,0.00,40.00,32,11,64,0.00
2013-3-20,61,54,49,-100,-100,-100,0,0,100,0.00,40.00,22,10,29,0.00
2013-3-21,56,48,41,-100,-100,-100,0,0,100,0.00,40.00,25,14,42,0.00
2013-3-22,50,44,36,-100,-100,-100,0,0,100,0.00,40.00,19,9,24,0.00
2013-3-23,52,48,43,-100,-100,-100,0,0,100,0.00,40.00,17,8,25,0.00
2013-3-24,61,51,45,-100,-100,-100,0,0,100,0.00,40.00,34,14,42,0.00
2013-3-25,53,47,43,-100,-100,-100,0,0,100,0.00,40.00,36,19,55,0.00
2013-3-26,47,41,34,-100,-100,-100,0,0,100,0.00,40.00,24,14,37,0.00
2013-3-27,56,45,35,-100,-100,-100,0,0,100,0.00,40.00,16,10,26,0.00
2013-3-28,58,49,39,-100,-100,-100,0,0,100,0.00,40.00,21,10,29,0.00
2013-3-29,59,52,42,-100,-100,-100,0,0,100,0.00,40.00,14,6,21,0.00
2013-3-30,69,59,53,-100,-100,-100,0,0,100,0.00,40.00,17,8,26,0.00
2013-3-31,70,63,55,-100,-100,-100,0,0,100,0.00,40.00,29,14,40,0.00
2013-4-1,73,66,60,-100,-100,-100,0,0,100,0.00,40.00,19,10,30,0.00
2013-4-2,65,58,53,-100,-100,-100,0,0,100,0.00,40.00,17,9,21,0.00
2013-4-3,63,56,50,-100,-100,-100,0,0,100,0.00,40.00,19,9,21,0.00
2013-4-4,58,53,48,-100,-100,-100,0,0,100,0.00,40.00,31,16,39,0.00
2013-4-5,57,48,42,-100,-100,-100,0,0,100,0.00,40.00,21,12,26,0.00
2013-4-6,65,56,47,-100,-100,-100,0,0,100,0.00,40.00,19,10,24,0.00
2013-4-7,68,60,51,-100,-100,-100,0,0,100,0.00,40.00,14,8,19,0.00
2013-4-8,72,66,60,-100,-100,-100,0,0,100,0.00,40.00,18,7,23,0.00
2013-4-9,77,69,62,75,-62,-100,94,21,94,0.00,40.00,16,8,23,0.00
2013-4-10,75,68,62,-100,-100,-100,0,0,100,0.00,40.00,17,8,23,0.00
2013-4-11,76,69,65,-100,-100,-100,0,0,100,0.00,40.00,21,10,32,0.00
2013-4-12,75,70,67,-100,-100,-100,0,0,100,0.00,40.00,23,13,46,0.00
2013-4-13,72,64,55,-100,-100,-100,0,0,100,0.00,40.00,18,9,22,0.00
2013-4-14,70,64,59,-100,-100,-100,0,0,100,0.00,40.00,20,7,26,0.00
2013-4-15,70,65,62,-100,-100,-100,0,0,100,0.00,40.00,17,9,23,0.00
2013-4-16,75,67,60,-100,-100,-100,0,0,100,0.00,40.00,11,8,16,0.00
2013-4-17,76,67,60,-100,-100,-100,0,0,100,0.00,40.00,11,5,18,0.00
2013-4-18,75,70,64,-100,-100,-100,0,0,100,0.00,40.00,18,9,24,0.00
2013-4-19,76,71,65,-100,-100,-100,0,0,100,0.00,40.00,41,13,60,0.00
2013-4-20,68,55,50,-100,-100,-100,0,0,100,0.00,40.00,19,11,29,0.00
2013-4-21,63,56,50,-100,-100,-100,0,0,100,0.00,40.00,32,20,41,0.00
2013-4-22,66,56,47,-100,-100,-100,0,0,100,0.00,40.00,26,16,32,0.00
2013-4-23,66,57,51,-100,-100,-100,0,0,100,0.00,40.00,16,8,21,0.00
2013-4-24,75,64,54,-100,-100,-100,0,0,100,0.00,40.00,19,7,26,0.00
2013-4-25,76,67,63,-100,-100,-100,0,0,100,0.00,40.00,39,9,54,0.00
2013-4-26,70,63,58,-100,-100,-100,0,0,100,0.00,40.00,20,11,29,0.00
2013-4-27,69,63,58,-100,-100,-100,0,0,100,0.00,40.00,16,8,19,0.00
2013-4-28,70,65,58,-100,-100,-100,0,0,100,0.00,40.00,20,11,26,0.00
2013-4-29,76,67,61,-100,-100,-100,0,0,100,0.00,40.00,28,8,34,0.00
2013-4-30,71,66,61,-100,-100,-100,0,0,100,0.00,40.00,17,7,24,0.00
2013-5-1,69,63,58,-100,-100,-100,0,0,100,0.00,40.00,20,13,24,0.00
2013-5-2,69,65,63,-100,-100,-100,0,0,100,0.00,40.00,29,19,36,0.00
2013-5-3,65,61,58,-100,-100,-100,0,0,100,0.00,40.00,33,22,41,0.00
2013-5-4,63,60,55,-100,-100,-100,0,0,100,0.00,40.00,29,22,36,0.00
2013-5-5,69,64,60,-100,-100,-100,0,0,100,0.00,40.00,29,16,34,0.00
2013-5-6,70,64,59,-100,-100,-100,0,0,100,0.00,40.00,15,9,25,0.00
2013-5-7,67,61,56,-100,-100,-100,0,0,100,0.00,40.00,19,6,29,0.00
2013-5-8,75,65,56,-100,-100,-100,0,0,100,0.00,40.00,19,11,28,0.00
2013-5-9,76,68,63,-100,-100,-100,0,0,100,0.00,40.00,19,11,26,0.00
2013-5-10,76,68,66,-100,-100,-100,94,2,94,0.00,40.00,17,9,24,0.00
2013-5-11,75,72,69,-100,-100,-100,0,0,100,0.00,40.00,15,9,21,0.00
2013-5-12,76,71,67,-100,-100,-100,0,0,100,0.00,40.00,21,12,30,0.00
2013-5-13,70,64,57,-100,-100,-100,0,0,100,0.00,40.00,19,11,27,0.00
2013-5-14,70,63,53,-100,-100,-100,0,0,100,0.00,40.00,16,8,24,0.00
2013-5-15,76,67,62,-100,-100,-100,0,0,100,0.00,40.00,21,12,33,0.00
2013-5-16,81,64,67,-100,-100,-100,94,17,94,0.00,40.00,19,11,26,0.00
2013-5-17,83,70,67,-100,-100,-100,94,4,94,0.00,40.00,14,9,21,0.00
2013-5-18,76,72,69,-100,-100,-100,0,0,100,0.00,40.00,15,7,21,0.00
2013-5-19,76,73,68,-100,-100,-100,0,0,100,0.00,40.00,15,8,24,0.00
2013-5-20,76,73,71,-100,-100,-100,0,0,100,0.00,40.00,19,8,29,0.00
2013-5-21,76,71,64,-100,-100,-100,0,0,100,0.00,40.00,28,6,35,0.00
2013-5-22,76,72,68,-100,-100,-100,0,0,100,0.00,40.00,15,6,19,0.00
2013-5-23,76,72,71,-100,-100,-100,0,0,100,0.00,40.00,10,5,14,0.00
2013-5-24,76,72,67,-100,-100,-100,0,0,100,0.00,40.00,21,12,31,0.00
2013-5-25,75,65,56,-100,-100,-100,0,0,100,0.00,40.00,21,10,24,0.00
2013-5-26,76,68,59,-100,-100,-100,0,0,100,0.00,40.00,15,8,24,0.00
2013-5-27,76,71,66,-100,-100,-100,0,0,100,0.00,40.00,14,6,20,0.00
2013-5-28,76,73,68,-100,-100,-100,0,0,100,0.00,40.00,15,7,20,0.00
2013-5-29,76,72,70,-100,-100,-100,0,0,100,0.00,40.00,11,7,18,0.00
2013-5-30,76,72,69,-100,-100,-100,0,0,100,0.00,40.00,11,5,16,0.00
2013-5-31,76,74,71,-100,-100,-100,0,0,100,0.00,40.00,14,7,19,0.00
2013-6-1,76,74,72,-100,-100,-100,0,0,100,0.00,40.00,14,6,18,0.00
2013-6-2,76,74,73,-100,-100,-100,0,0,100,0.00,40.00,16,8,21,0.00
2013-6-3,77,74,68,75,-87,-100,94,7,94,0.00,40.00,24,8,39,0.00
2013-6-4,82,76,71,80,-15,-100,94,45,94,0.00,40.00,11,6,19,0.00
2013-6-5,79,74,68,77,-61,-100,94,21,94,0.00,40.00,26,8,32,0.00
2013-6-6,77,74,68,75,-33,-100,94,36,93,0.00,40.00,19,8,33,0.00
2013-6-7,83,76,71,82,-32,-100,94,36,94,0.00,40.00,31,18,49,0.00
2013-6-8,85,78,74,83,29,-100,94,68,94,0.00,40.00,21,10,27,0.00
2013-6-9,82,78,75,80,42,-100,94,75,94,0.00,40.00,19,9,25,0.00
2013-6-10,83,78,69,81,49,-100,94,79,94,0.00,40.00,30,11,51,0.00
2013-6-11,87,77,70,85,-15,-100,94,44,94,0.00,40.00,21,11,39,0.00
2013-6-12,78,76,74,76,-10,-100,94,48,94,0.00,40.00,14,9,16,0.00
2013-6-15,76,73,69,-100,-100,-100,0,0,100,0.00,40.00,11,7,14,0.00
2013-6-16,76,75,73,-100,-100,-100,0,0,100,0.00,40.00,11,6,14,0.00
2013-6-17,76,74,73,-100,-100,-100,0,0,100,0.00,40.00,16,6,21,0.00
2013-6-18,76,73,70,-100,-100,-100,0,0,100,0.00,40.00,24,7,37,0.00
2013-6-19,75,72,71,-100,-100,-100,0,0,100,0.00,40.00,19,6,33,0.00
2013-6-20,76,72,70,-100,-100,-100,0,0,100,0.00,40.00,19,12,24,0.00
2013-6-22,75,74,74,-100,-100,-100,0,0,100,0.00,40.00,7,6,9,0.00
2013-6-25,85,80,76,83,78,74,95,94,94,0.00,40.00,13,6,19,0.00
2013-6-26,81,76,71,79,-32,-100,94,36,94,0.00,40.00,18,9,28,0.00
2013-6-27,86,79,76,84,77,74,95,94,94,0.00,40.00,20,10,30,0.00
2013-6-28,86,81,77,84,79,75,95,94,94,0.00,40.00,21,14,32,0.00
2013-6-29,85,78,71,83,24,-100,94,65,94,0.00,40.00,26,12,34,0.00
2013-6-30,82,75,70,80,-26,-100,94,39,94,0.00,40.00,23,9,33,0.00
2013-7-1,83,78,73,81,36,-100,94,72,94,0.00,40.00,21,11,32,0.00
2013-7-2,80,77,74,79,46,-100,95,78,94,0.00,40.00,19,10,28,0.00
2013-7-3,81,78,76,79,76,74,94,94,94,0.00,40.00,20,10,28,0.00
2013-7-4,82,80,77,80,78,75,95,94,94,0.00,40.00,21,14,32,0.00
2013-7-5,83,80,76,81,78,74,95,94,94,0.00,40.00,27,10,34,0.00
2013-7-6,82,79,76,80,65,-100,95,88,94,0.00,40.00,19,9,25,0.00
2013-7-7,82,79,76,80,78,74,94,94,94,0.00,40.00,16,9,22,0.00
2013-7-8,84,77,75,82,56,-100,95,84,94,0.00,40.00,11,5,16,0.00
2013-7-9,83,78,75,81,53,-100,95,82,94,0.00,40.00,13,6,19,0.00